createdAt,value
2022-10-16T00:00:54.838Z,21.03
2022-10-16T00:03:21.973Z,21.02
2022-10-16T00:05:50.777Z,21.00
2022-10-16T00:08:17.387Z,21.01
2022-10-16T00:10:43.947Z,21.00
2022-10-16T00:13:10.583Z,20.99
2022-10-16T00:15:37.660Z,20.99
2022-10-16T00:18:05.082Z,20.99
2022-10-16T00:20:34.496Z,20.99
2022-10-16T00:23:01.082Z,20.99
2022-10-16T00:25:27.731Z,20.99
2022-10-16T00:27:54.652Z,20.99
2022-10-16T00:30:24.357Z,20.98
2022-10-16T00:32:50.915Z,20.99
2022-10-16T00:35:17.534Z,20.99
2022-10-16T00:37:44.490Z,20.97
2022-10-16T00:40:11.439Z,20.97
2022-10-16T00:42:38.160Z,20.97
2022-10-16T00:45:05.121Z,20.96
2022-10-16T00:47:32.933Z,20.97
2022-10-16T00:50:06.918Z,20.96
2022-10-16T00:52:33.473Z,20.96
2022-10-16T00:55:00.032Z,20.96
2022-10-16T00:57:26.656Z,20.96
2022-10-16T00:59:53.212Z,20.96
2022-10-16T01:02:19.804Z,20.95
2022-10-16T01:04:49.119Z,20.96
2022-10-16T01:07:57.549Z,20.95
2022-10-16T01:10:41.361Z,20.95
2022-10-16T01:13:10.615Z,20.96
2022-10-16T01:15:46.164Z,20.96
2022-10-16T01:18:18.564Z,20.95
2022-10-16T01:20:57.627Z,20.95
2022-10-16T01:24:01.856Z,20.95
2022-10-16T01:26:42.463Z,20.95
2022-10-16T01:29:09.249Z,20.94
2022-10-16T01:31:37.628Z,20.95
2022-10-16T01:34:11.142Z,20.95
2022-10-16T01:36:43.424Z,20.94
2022-10-16T01:39:12.948Z,20.94
2022-10-16T01:41:42.360Z,20.93
2022-10-16T01:44:18.810Z,20.94
2022-10-16T01:46:47.080Z,20.93
2022-10-16T01:49:14.346Z,20.92
2022-10-16T01:51:41.018Z,20.92
2022-10-16T01:54:09.137Z,20.93
2022-10-16T01:56:35.884Z,20.92
2022-10-16T01:59:25.884Z,20.93
2022-10-16T02:02:00.983Z,20.92
2022-10-16T02:04:33.315Z,20.92
2022-10-16T02:06:59.925Z,20.92
2022-10-16T02:09:26.483Z,20.90
2022-10-16T02:11:54.825Z,20.91
2022-10-16T02:14:21.401Z,20.91
2022-10-16T02:16:48.075Z,20.90
2022-10-16T02:19:14.857Z,20.91
2022-10-16T02:21:48.170Z,20.90
2022-10-16T02:24:20.644Z,20.90
2022-10-16T02:26:50.672Z,20.89
2022-10-16T02:29:18.800Z,20.89
2022-10-16T02:31:48.280Z,20.89
2022-10-16T02:34:14.945Z,20.89
2022-10-16T02:36:41.990Z,20.88
2022-10-16T02:39:08.818Z,20.88
2022-10-16T02:41:35.476Z,20.88
2022-10-16T02:44:02.023Z,20.87
2022-10-16T02:46:28.620Z,20.87
2022-10-16T02:48:55.168Z,20.87
2022-10-16T02:51:21.849Z,20.85
2022-10-16T02:53:48.395Z,20.85
2022-10-16T02:56:15.028Z,20.87
2022-10-16T02:58:41.648Z,20.85
2022-10-16T03:01:08.991Z,20.85
2022-10-16T03:03:38.314Z,20.86
2022-10-16T03:06:05.101Z,20.85
2022-10-16T03:08:31.652Z,20.84
2022-10-16T03:11:00.347Z,20.84
2022-10-16T03:13:26.906Z,20.83
2022-10-16T03:15:53.504Z,20.84
2022-10-16T03:18:20.134Z,20.83
2022-10-16T03:20:46.785Z,20.82
2022-10-16T03:23:13.361Z,20.83
2022-10-16T03:25:42.501Z,20.83
2022-10-16T03:28:09.325Z,20.83
2022-10-16T03:30:35.930Z,20.83
2022-10-16T03:33:02.562Z,20.82
2022-10-16T03:35:29.156Z,20.82
2022-10-16T03:37:55.749Z,20.82
2022-10-16T03:40:22.414Z,20.81
2022-10-16T03:42:48.971Z,20.80
2022-10-16T03:45:15.644Z,20.79
2022-10-16T03:47:42.360Z,20.79
2022-10-16T03:50:09.099Z,20.79
2022-10-16T03:52:35.754Z,20.79
2022-10-16T03:55:02.284Z,20.78
2022-10-16T03:57:29.181Z,20.78
2022-10-16T03:59:55.971Z,20.78
2022-10-16T04:02:22.581Z,20.78
2022-10-16T04:04:49.175Z,20.78
2022-10-16T04:07:15.802Z,20.77
2022-10-16T04:09:43.006Z,20.80
2022-10-16T04:12:09.639Z,20.85
2022-10-16T04:14:36.216Z,20.92
2022-10-16T04:17:02.957Z,21.02
2022-10-16T04:19:29.533Z,21.12
2022-10-16T04:21:56.086Z,21.21
2022-10-16T04:24:22.675Z,21.32
2022-10-16T04:26:49.235Z,21.45
2022-10-16T04:29:15.901Z,21.58
2022-10-16T04:31:42.489Z,21.67
2022-10-16T04:34:09.182Z,21.77
2022-10-16T04:36:35.797Z,21.84
2022-10-16T04:39:02.436Z,21.90
2022-10-16T04:41:28.997Z,21.96
2022-10-16T04:43:55.599Z,22.02
2022-10-16T04:46:22.182Z,22.05
2022-10-16T04:48:48.751Z,22.07
2022-10-16T04:51:15.322Z,22.10
2022-10-16T04:53:41.895Z,22.12
2022-10-16T04:56:08.451Z,22.12
2022-10-16T04:58:34.985Z,22.14
2022-10-16T05:01:01.534Z,22.15
2022-10-16T05:03:28.292Z,22.15
2022-10-16T05:05:54.935Z,22.16
2022-10-16T05:08:21.655Z,22.15
2022-10-16T05:10:48.250Z,22.15
2022-10-16T05:13:14.784Z,22.15
2022-10-16T05:15:41.715Z,22.14
2022-10-16T05:18:09.106Z,22.13
2022-10-16T05:20:35.677Z,22.11
2022-10-16T05:23:02.261Z,22.10
2022-10-16T05:25:28.927Z,22.09
2022-10-16T05:27:55.508Z,22.08
2022-10-16T05:30:22.159Z,22.07
2022-10-16T05:32:49.866Z,22.06
2022-10-16T05:35:17.191Z,22.05
2022-10-16T05:37:43.728Z,22.03
2022-10-16T05:40:11.063Z,22.01
2022-10-16T05:42:38.226Z,22.01
2022-10-16T05:45:06.456Z,21.99
2022-10-16T05:47:33.015Z,21.97
2022-10-16T05:49:59.582Z,21.96
2022-10-16T05:52:26.160Z,21.95
2022-10-16T05:54:52.723Z,21.94
2022-10-16T05:57:19.257Z,21.92
2022-10-16T05:59:46.002Z,21.91
2022-10-16T06:02:17.095Z,21.91
2022-10-16T06:04:43.703Z,21.89
2022-10-16T06:07:10.247Z,21.89
2022-10-16T06:09:36.853Z,21.87
2022-10-16T06:12:03.485Z,21.87
2022-10-16T06:14:30.136Z,21.87
2022-10-16T06:16:56.678Z,21.86
2022-10-16T06:19:23.918Z,21.85
2022-10-16T06:21:50.467Z,21.84
2022-10-16T06:24:17.091Z,21.84
2022-10-16T06:26:43.955Z,21.84
2022-10-16T06:29:10.558Z,21.83
2022-10-16T06:31:37.183Z,21.81
2022-10-16T06:34:05.763Z,21.81
2022-10-16T06:36:32.450Z,21.82
2022-10-16T06:38:59.023Z,21.82
2022-10-16T06:41:25.649Z,21.81
2022-10-16T06:43:53.255Z,21.81
2022-10-16T06:46:21.681Z,21.81
2022-10-16T06:48:50.970Z,21.80
2022-10-16T06:51:20.859Z,21.79
2022-10-16T06:54:06.901Z,21.79
2022-10-16T06:56:33.897Z,21.79
2022-10-16T06:59:00.753Z,21.79
2022-10-16T07:01:28.513Z,21.78
2022-10-16T07:03:55.078Z,21.78
2022-10-16T07:06:23.035Z,21.78
2022-10-16T07:08:49.783Z,21.78
2022-10-16T07:11:21.242Z,21.78
2022-10-16T07:13:52.545Z,21.78
2022-10-16T07:16:23.134Z,21.78
2022-10-16T07:18:50.375Z,21.79
2022-10-16T07:21:18.466Z,21.80
2022-10-16T07:23:45.048Z,21.80
2022-10-16T07:26:11.775Z,21.80
2022-10-16T07:28:38.820Z,21.82
2022-10-16T07:31:07.713Z,21.83
2022-10-16T07:33:34.738Z,21.85
2022-10-16T07:36:01.347Z,21.85
2022-10-16T07:38:27.959Z,21.86
2022-10-16T07:40:59.068Z,21.87
2022-10-16T07:43:26.492Z,21.85
2022-10-16T07:48:25.365Z,21.83
2022-10-16T07:50:51.979Z,21.82
2022-10-16T07:53:20.514Z,21.81
2022-10-16T07:55:48.935Z,21.80
2022-10-16T07:58:15.490Z,21.80
2022-10-16T08:00:42.052Z,21.79
2022-10-16T08:03:09.323Z,21.79
2022-10-16T08:05:35.994Z,21.79
2022-10-16T08:08:03.043Z,21.77
2022-10-16T08:10:29.953Z,21.80
2022-10-16T08:12:56.547Z,21.80
2022-10-16T08:15:23.408Z,21.83
2022-10-16T08:18:00.367Z,21.84
2022-10-16T08:20:27.329Z,21.86
2022-10-16T08:22:54.949Z,21.88
2022-10-16T08:25:22.471Z,21.89
2022-10-16T08:27:49.213Z,21.91
2022-10-16T08:30:16.238Z,21.93
2022-10-16T08:32:43.059Z,21.93
2022-10-16T08:35:12.958Z,21.93
2022-10-16T08:37:39.770Z,21.95
2022-10-16T08:40:07.534Z,21.95
2022-10-16T08:42:53.533Z,21.95
2022-10-16T08:45:35.288Z,21.97
2022-10-16T08:48:06.550Z,21.97
2022-10-16T08:50:33.844Z,21.98
2022-10-16T08:53:00.435Z,21.98
2022-10-16T08:55:35.318Z,22.02
2022-10-16T08:58:01.861Z,22.02
2022-10-16T09:00:28.510Z,22.04
2022-10-16T09:03:24.241Z,22.05
2022-10-16T09:06:19.219Z,22.07
2022-10-16T09:09:04.593Z,22.09
2022-10-16T09:11:51.447Z,22.10
2022-10-16T09:14:38.999Z,22.12
2022-10-16T09:17:31.280Z,22.13
2022-10-16T09:20:10.407Z,22.15
2022-10-16T09:22:36.972Z,22.17
2022-10-16T09:25:12.798Z,22.18
2022-10-16T09:27:39.227Z,22.20
2022-10-16T09:30:19.428Z,22.21
2022-10-16T09:32:49.360Z,22.21
2022-10-16T09:35:20.047Z,22.22
2022-10-16T09:37:47.972Z,22.22
2022-10-16T09:40:24.925Z,22.23
2022-10-16T09:42:51.500Z,22.22
2022-10-16T09:45:22.674Z,22.23
2022-10-16T09:47:50.851Z,22.23
2022-10-16T09:50:22.212Z,22.24
2022-10-16T09:52:48.970Z,22.23
2022-10-16T09:55:17.605Z,22.24
2022-10-16T09:58:14.108Z,22.24
2022-10-16T10:00:41.202Z,22.26
2022-10-16T10:03:11.434Z,22.24
2022-10-16T10:05:38.536Z,22.24
2022-10-16T10:08:09.461Z,22.25
2022-10-16T10:10:42.514Z,22.24
2022-10-16T10:13:22.731Z,22.23
2022-10-16T10:15:49.322Z,22.23
2022-10-16T10:18:17.552Z,22.24
2022-10-16T10:20:44.354Z,22.23
2022-10-16T10:23:22.471Z,22.24
2022-10-16T10:26:08.892Z,22.23
2022-10-16T10:29:17.384Z,22.24
2022-10-16T10:32:09.663Z,22.24
2022-10-16T10:35:14.051Z,22.22
2022-10-16T10:37:49.776Z,22.23
2022-10-16T10:40:29.412Z,22.22
2022-10-16T10:43:40.385Z,22.21
2022-10-16T10:46:07.700Z,22.21
2022-10-16T10:48:52.799Z,22.21
2022-10-16T10:51:24.390Z,22.20
2022-10-16T10:54:16.062Z,22.19
2022-10-16T10:57:01.708Z,22.19
2022-10-16T10:59:32.063Z,22.19
2022-10-16T11:02:22.396Z,22.19
2022-10-16T11:04:58.983Z,22.16
2022-10-16T11:07:31.185Z,22.16
2022-10-16T11:10:24.032Z,22.17
2022-10-16T11:12:56.218Z,22.14
2022-10-16T11:15:26.865Z,22.14
2022-10-16T11:17:56.866Z,22.12
2022-10-16T11:20:31.186Z,22.12
2022-10-16T11:23:07.261Z,22.11
2022-10-16T11:25:34.099Z,22.10
2022-10-16T11:28:11.926Z,22.09
2022-10-16T11:30:51.419Z,22.09
2022-10-16T11:33:32.567Z,22.08
2022-10-16T11:36:20.495Z,22.07
2022-10-16T11:38:54.897Z,22.06
2022-10-16T11:41:21.390Z,22.06
2022-10-16T11:44:06.824Z,22.06
2022-10-16T11:46:33.658Z,22.05
2022-10-16T11:49:35.931Z,22.05
2022-10-16T11:52:41.502Z,22.03
2022-10-16T11:55:18.072Z,22.03
2022-10-16T11:57:55.886Z,22.03
2022-10-16T12:00:31.355Z,22.02
2022-10-16T12:03:13.234Z,22.02
2022-10-16T12:06:07.975Z,22.01
2022-10-16T12:08:35.390Z,21.98
2022-10-16T12:11:09.969Z,21.98
2022-10-16T12:13:41.241Z,22.00
2022-10-16T12:16:13.978Z,21.98
2022-10-16T12:18:41.472Z,21.98
2022-10-16T12:21:08.592Z,21.97
2022-10-16T12:23:39.257Z,21.98
2022-10-16T12:26:05.881Z,21.98
2022-10-16T12:28:36.522Z,21.97
2022-10-16T12:31:07.871Z,21.97
2022-10-16T12:33:34.745Z,21.97
2022-10-16T12:36:03.287Z,21.96
2022-10-16T12:38:39.786Z,21.96
2022-10-16T12:41:11.738Z,21.95
2022-10-16T12:43:45.582Z,21.95
2022-10-16T12:46:17.952Z,21.95
2022-10-16T12:48:49.543Z,21.94
2022-10-16T12:51:31.886Z,21.94
2022-10-16T12:54:11.206Z,21.93
2022-10-16T12:56:44.439Z,21.93
2022-10-16T12:59:10.950Z,21.93
2022-10-16T13:02:04.250Z,21.93
2022-10-16T13:04:46.028Z,21.92
2022-10-16T13:07:38.344Z,21.91
2022-10-16T13:10:04.769Z,21.92
2022-10-16T13:13:10.682Z,21.91
2022-10-16T13:15:43.366Z,21.91
2022-10-16T13:18:17.187Z,21.91
2022-10-16T13:21:03.922Z,21.90
2022-10-16T13:24:06.271Z,21.89
2022-10-16T13:26:56.714Z,21.89
2022-10-16T13:29:23.464Z,21.89
2022-10-16T13:31:50.038Z,21.89
2022-10-16T13:34:21.472Z,21.89
2022-10-16T13:36:52.108Z,21.88
2022-10-16T13:39:31.633Z,21.87
2022-10-16T13:42:04.845Z,21.87
2022-10-16T13:44:44.734Z,21.87
2022-10-16T13:47:18.656Z,21.87
2022-10-16T13:49:45.314Z,21.86
2022-10-16T13:52:20.087Z,21.85
2022-10-16T13:54:46.648Z,21.86
2022-10-16T13:57:26.656Z,21.85
2022-10-16T13:59:54.320Z,21.85
2022-10-16T14:02:36.351Z,21.84
2022-10-16T14:05:03.715Z,21.84
2022-10-16T14:07:34.037Z,21.84
2022-10-16T14:10:08.268Z,21.84
2022-10-16T14:12:35.547Z,21.83
2022-10-16T14:15:02.300Z,21.82
2022-10-16T14:17:30.440Z,21.82
2022-10-16T14:20:01.008Z,21.82
2022-10-16T14:22:43.316Z,21.82
2022-10-16T14:25:27.487Z,21.82
2022-10-16T14:28:05.043Z,21.81
2022-10-16T14:30:33.924Z,21.82
2022-10-16T14:33:07.524Z,21.80
2022-10-16T14:35:40.410Z,21.80
2022-10-16T14:38:07.481Z,21.80
2022-10-16T14:40:37.902Z,21.79
2022-10-16T14:43:04.888Z,21.79
2022-10-16T14:45:32.946Z,21.79
2022-10-16T14:48:04.966Z,21.78
2022-10-16T14:50:31.550Z,21.79
2022-10-16T14:52:58.145Z,21.78
2022-10-16T14:57:59.650Z,21.77
2022-10-16T15:00:27.879Z,21.77
2022-10-16T15:02:54.477Z,21.76
2022-10-16T15:05:28.055Z,21.76
2022-10-16T15:07:55.954Z,21.75
2022-10-16T15:10:23.591Z,21.75
2022-10-16T15:12:50.230Z,21.75
2022-10-16T15:15:21.446Z,21.75
2022-10-16T15:17:48.897Z,21.73
2022-10-16T15:20:15.524Z,21.74
2022-10-16T15:22:42.078Z,21.74
2022-10-16T15:25:33.694Z,21.73
2022-10-16T15:28:00.754Z,21.73
2022-10-16T15:30:27.304Z,21.72
2022-10-16T15:32:53.995Z,21.72
2022-10-16T15:35:20.626Z,21.72
2022-10-16T15:37:48.227Z,21.72
2022-10-16T15:40:15.237Z,21.72
2022-10-16T15:42:42.121Z,21.72
2022-10-16T15:45:10.098Z,21.71
2022-10-16T15:47:36.900Z,21.71
2022-10-16T15:50:04.070Z,21.70
2022-10-16T15:52:32.696Z,21.71
2022-10-16T15:54:59.823Z,21.70
2022-10-16T15:57:26.878Z,21.70
2022-10-16T15:59:53.485Z,21.69
2022-10-16T16:02:20.095Z,21.70
2022-10-16T16:04:46.645Z,21.69
2022-10-16T16:07:13.287Z,21.70
2022-10-16T16:09:39.831Z,21.70
2022-10-16T16:12:06.418Z,21.70
2022-10-16T16:14:32.991Z,21.70
2022-10-16T16:16:59.568Z,21.69
2022-10-16T16:19:26.153Z,21.69
2022-10-16T16:21:52.712Z,21.69
2022-10-16T16:24:19.278Z,21.69
2022-10-16T16:26:45.870Z,21.69
2022-10-16T16:29:13.428Z,21.69
2022-10-16T16:31:40.305Z,21.68
2022-10-16T16:34:06.913Z,21.68
2022-10-16T16:36:33.883Z,21.68
2022-10-16T16:39:00.450Z,21.68
2022-10-16T16:41:28.884Z,21.68
2022-10-16T16:43:55.587Z,21.68
2022-10-16T16:46:22.272Z,21.68
2022-10-16T16:48:50.975Z,21.68
2022-10-16T16:51:19.185Z,21.67
2022-10-16T16:53:49.408Z,21.68
2022-10-16T16:56:15.967Z,21.67
2022-10-16T16:58:42.810Z,21.68
2022-10-16T17:01:25.983Z,21.67
2022-10-16T17:03:53.472Z,21.67
2022-10-16T17:06:28.325Z,21.66
2022-10-16T17:08:54.999Z,21.68
2022-10-16T17:11:27.730Z,21.67
2022-10-16T17:13:56.983Z,21.66
2022-10-16T17:16:30.278Z,21.67
2022-10-16T17:18:59.354Z,21.67
2022-10-16T17:21:26.904Z,21.65
2022-10-16T17:23:53.652Z,21.65
2022-10-16T17:26:20.268Z,21.66
2022-10-16T17:28:46.921Z,21.66
2022-10-16T17:31:18.662Z,21.65
2022-10-16T17:33:45.321Z,21.65
2022-10-16T17:36:14.493Z,21.64
2022-10-16T17:38:41.787Z,21.64
2022-10-16T17:41:19.355Z,21.64
2022-10-16T17:43:45.980Z,21.64
2022-10-16T17:46:12.933Z,21.63
2022-10-16T17:48:43.807Z,21.63
2022-10-16T17:51:11.189Z,21.63
2022-10-16T17:53:37.929Z,21.63
2022-10-16T17:56:09.046Z,21.63
2022-10-16T17:58:35.630Z,21.63
2022-10-16T18:01:02.447Z,21.62
2022-10-16T18:03:29.112Z,21.62
2022-10-16T18:05:55.853Z,21.62
2022-10-16T18:08:26.334Z,21.62
2022-10-16T18:10:55.416Z,21.62
2022-10-16T18:13:23.491Z,21.62
2022-10-16T18:16:02.520Z,21.61
2022-10-16T18:18:29.832Z,21.60
2022-10-16T18:21:00.075Z,21.60
2022-10-16T18:23:27.311Z,21.60
2022-10-16T18:25:53.926Z,21.60
2022-10-16T18:28:20.784Z,21.60
2022-10-16T18:31:01.358Z,21.59
2022-10-16T18:33:28.263Z,21.59
2022-10-16T18:35:54.863Z,21.59
2022-10-16T18:38:21.512Z,21.58
2022-10-16T18:40:48.171Z,21.59
2022-10-16T18:43:14.748Z,21.58
2022-10-16T18:45:41.307Z,21.58
2022-10-16T18:48:07.881Z,21.58
2022-10-16T18:50:34.621Z,21.57
2022-10-16T18:53:01.224Z,21.56
2022-10-16T18:55:30.905Z,21.56
2022-10-16T18:57:57.727Z,21.56
2022-10-16T19:00:24.331Z,21.55
2022-10-16T19:02:50.918Z,21.55
2022-10-16T19:05:17.480Z,21.54
2022-10-16T19:07:47.139Z,21.55
2022-10-16T19:10:14.081Z,21.54
2022-10-16T19:12:41.274Z,21.54
2022-10-16T19:15:08.310Z,21.54
2022-10-16T19:17:36.533Z,21.53
2022-10-16T19:20:04.525Z,21.51
2022-10-16T19:22:51.050Z,21.52
2022-10-16T19:25:18.406Z,21.51
2022-10-16T19:27:44.994Z,21.50
2022-10-16T19:32:43.179Z,21.50
2022-10-16T19:35:09.842Z,21.50
2022-10-16T19:37:36.556Z,21.49
2022-10-16T19:40:04.522Z,21.49
2022-10-16T19:42:31.122Z,21.50
2022-10-16T19:44:57.664Z,21.50
2022-10-16T19:47:24.738Z,21.48
2022-10-16T19:49:52.471Z,21.47
2022-10-16T19:52:19.065Z,21.48
2022-10-16T19:54:45.736Z,21.47
2022-10-16T19:57:12.315Z,21.46
2022-10-16T19:59:45.893Z,21.46
2022-10-16T20:02:12.659Z,21.46
2022-10-16T20:04:39.218Z,21.46
2022-10-16T20:07:05.942Z,21.45
2022-10-16T20:09:33.252Z,21.46
2022-10-16T20:11:59.828Z,21.45
2022-10-16T20:14:26.381Z,21.45
2022-10-16T20:16:55.482Z,21.45
2022-10-16T20:19:22.114Z,21.44
2022-10-16T20:21:48.800Z,21.44
2022-10-16T20:24:15.641Z,21.45
2022-10-16T20:26:42.240Z,21.43
2022-10-16T20:29:08.882Z,21.43
2022-10-16T20:31:35.549Z,21.43
2022-10-16T20:34:04.938Z,21.43
2022-10-16T20:36:33.377Z,21.42
2022-10-16T20:39:00.513Z,21.42
2022-10-16T20:41:27.374Z,21.43
2022-10-16T20:43:55.666Z,21.42
2022-10-16T20:46:23.751Z,21.43
2022-10-16T20:48:50.514Z,21.42
2022-10-16T20:51:17.860Z,21.42
2022-10-16T20:53:46.480Z,21.42
2022-10-16T20:56:15.776Z,21.41
2022-10-16T20:58:42.443Z,21.40
2022-10-16T21:01:10.480Z,21.41
2022-10-16T21:03:37.303Z,21.40
2022-10-16T21:06:07.638Z,21.40
2022-10-16T21:08:38.161Z,21.39
2022-10-16T21:11:19.136Z,21.39
2022-10-16T21:13:45.884Z,21.39
2022-10-16T21:16:13.618Z,21.39
2022-10-16T21:18:44.219Z,21.39
2022-10-16T21:21:12.133Z,21.39
2022-10-16T21:23:38.774Z,21.38
2022-10-16T21:26:05.323Z,21.39
2022-10-16T21:28:32.103Z,21.39
2022-10-16T21:30:58.887Z,21.39
2022-10-16T21:33:25.489Z,21.39
2022-10-16T21:35:52.058Z,21.38
2022-10-16T21:38:18.624Z,21.37
2022-10-16T21:40:45.646Z,21.38
2022-10-16T21:43:13.584Z,21.37
2022-10-16T21:45:40.155Z,21.37
2022-10-16T21:48:06.959Z,21.36
2022-10-16T21:50:33.519Z,21.36
2022-10-16T21:53:00.080Z,21.36
2022-10-16T21:55:26.648Z,21.36
2022-10-16T21:57:53.182Z,21.36
2022-10-16T22:00:19.850Z,21.35
2022-10-16T22:02:46.408Z,21.35
2022-10-16T22:05:12.988Z,21.35
2022-10-16T22:07:39.580Z,21.33
2022-10-16T22:10:06.784Z,21.34
2022-10-16T22:12:33.333Z,21.32
2022-10-16T22:14:59.870Z,21.33
2022-10-16T22:17:26.567Z,21.33
2022-10-16T22:19:53.280Z,21.32
2022-10-16T22:22:19.850Z,21.31
2022-10-16T22:24:47.107Z,21.33
2022-10-16T22:27:13.681Z,21.31
2022-10-16T22:29:40.246Z,21.31
2022-10-16T22:32:07.669Z,21.31
2022-10-16T22:34:36.693Z,21.30
2022-10-16T22:37:03.559Z,21.30
2022-10-16T22:39:30.153Z,21.29
2022-10-16T22:41:56.841Z,21.29
2022-10-16T22:44:23.407Z,21.30
2022-10-16T22:46:49.982Z,21.30
2022-10-16T22:49:18.643Z,21.28
2022-10-16T22:51:45.188Z,21.29
2022-10-16T22:54:11.818Z,21.28
2022-10-16T22:56:38.441Z,21.27
2022-10-16T22:59:05.151Z,21.27
2022-10-16T23:01:34.724Z,21.27
2022-10-16T23:04:01.558Z,21.27
2022-10-16T23:06:29.644Z,21.26
2022-10-16T23:08:57.486Z,21.25
2022-10-16T23:11:24.060Z,21.27
2022-10-16T23:13:50.644Z,21.25
2022-10-16T23:16:18.245Z,21.24
2022-10-16T23:18:44.939Z,21.24
2022-10-16T23:21:16.226Z,21.24
2022-10-16T23:23:42.878Z,21.23
2022-10-16T23:26:13.819Z,21.23
2022-10-16T23:28:40.520Z,21.23
2022-10-16T23:31:07.321Z,21.23
2022-10-16T23:33:34.128Z,21.22
2022-10-16T23:36:04.911Z,21.22
2022-10-16T23:38:34.819Z,21.22
2022-10-16T23:41:01.542Z,21.21
2022-10-16T23:43:28.116Z,21.19
2022-10-16T23:45:54.824Z,21.19
2022-10-16T23:48:21.393Z,21.18
2022-10-16T23:50:47.975Z,21.18
2022-10-16T23:53:14.633Z,21.17
2022-10-16T23:55:41.251Z,21.17
2022-10-16T23:58:07.831Z,21.16
